This is the latest recevied weather packets stored in our database for station/object EB2GLU-13. If no packets are shown the sender has not sent any weather packets the latest 10 day(s).
| Time | Temp. | Humidity | Pressure | Rain* | Wind** | Luminosity | Snow |
|---|---|---|---|---|---|---|---|
| 1777372912 | 20.56° C | 77% | 1012.4 hPa | 0 mm | - | - | - |
| 1777372162 | 23.89° C | 67% | 1012.7 hPa | 0 mm | - | - | - |
| 1777371412 | 21.67° C | 73% | 1012.8 hPa | 0 mm | - | - | - |
| 1777370661 | 21.11° C | 75% | 1013 hPa | 0 mm | - | - | - |
| 1777369911 | 20° C | 78% | 1012.9 hPa | 0 mm | - | - | - |
| 1777369161 | 18.33° C | 81% | 1013.2 hPa | 0 mm | - | - | - |
| 1777368411 | 18.89° C | 79% | 1012.9 hPa | 0 mm | - | - | - |
| 1777367661 | 18.89° C | 81% | 1013.2 hPa | 0 mm | - | - | - |
| 1777366911 | 17.78° C | 91% | 1013.2 hPa | 0 mm | - | - | - |
| 1777366161 | 16.67° C | 96% | 1013.1 hPa | 0 mm | - | - | - |
| 1777365411 | 16.11° C | 97% | 1013.2 hPa | 0 mm | - | - | - |
| 1777364661 | 15.56° C | 97% | 1013.2 hPa | 0 mm | - | - | - |
| 1777363911 | 15.56° C | 98% | 1013.1 hPa | 0 mm | - | - | - |
| 1777363161 | 15.56° C | 98% | 1013 hPa | 0 mm | - | - | - |
| 1777362411 | 15.56° C | 98% | 1013.1 hPa | 0 mm | - | - | - |
| 1777361641 | 16.11° C | 98% | 1013 hPa | 0 mm | - | - | - |
| 1777360891 | 15.56° C | 98% | 1013.3 hPa | 0 mm | - | - | - |
| 1777360141 | 15.56° C | 98% | 1013.2 hPa | 0 mm | - | - | - |
| 1777359391 | 15.56° C | 98% | 1013.3 hPa | 0 mm | - | - | - |
| 1777358641 | 15.56° C | 98% | 1013.3 hPa | 0 mm | - | - | - |
| 1777357891 | 15° C | 98% | 1013.2 hPa | 0 mm | - | - | - |
| 1777357141 | 15.56° C | 98% | 1013.2 hPa | 0 mm | - | - | - |
* Rain latest hour (hover to see other rain measurements)
** Current wind speed in m/s (hover to see current wind gust speed)